الصفحة الرئيسية
METAR-TAF:

METAR-TAF

مطار :

مطار تشيناي الدولي

تشيناي, الهند

دائرة عرض: 13-00N, خط طول: 080-11E, ارتفاع: 10 متر

مراقبة الطقس الحالي

تاريخ ووقت الإصدار 40 دقيقة قبل الساعة 17:30UTC
ريح 6 عقدة من الجنوب/الجنوب الغربي
درجة الحرارة 31°درجة مئوية
الرطوبة 79%
ضغط 1006 hPa
الرؤية: 6000 متر
غيوم متفرقة على ارتفاع 2000 قدم
غيوم مفككة على ارتفاع 10000 قدم

METAR: VOMM 141730Z 21006KT 6000 SCT020 BKN100 31/27 Q1006 BECMG 5000 BR

زمن: 23:40 (18:10 UTC)

توقعات

تاريخ ووقت الإصدار 1ساعة و 10 دقيقة قبل الساعة 17:00UTC
التوقعات صالحة من14 الساعة 18 UTC إلى 15 الساعة 24 UTC
ريح 5 عقدة من الجنوب الغربي
الرؤية: 5000 متر
غيوم متفرقة على ارتفاع 1500 قدم
غيوم مفككة على ارتفاع 10000 قدم
العجاج
أصبح
من 15 الساعة 03 UTC إلى 15 الساعة 04 UTC
ريح 10 عقدة من الجنوب الغربي تتزايد حتى 20 عقدة
الرؤية: 6000 متر
أصبح
من 15 الساعة 12 UTC إلى 15 الساعة 13 UTC
ريح 5 عقدة من الجنوب الغربي
الرؤية: 5000 متر
العجاج,

TAF: VOMM 141700Z 1418/1524 23005KT 5000 HZ SCT015 BKN100 BECMG 1503/1504 23010G20KT 6000 BECMG 1512/1513 23005KT 5000 HZ

أرصاد الطقس والتوقعات من أكثر من 4000 مطار (تقارير الطقس للمطار METAR والتنبؤ بالطقس بالمطارTAF).

المحطات المتاحة هي النقط الصفراء والحمراء على الخريطة.

حرك المؤشر فوق النقطة لمعرفة اسم المحطة.

ثم انقر لمعرفة أرصاد وتوقعات الطقس.

لتغيير الخارطة: اضغط على الأزرار الخضراء مع رمز الصليب الأسود للتكبير. على الزر الأخضر مع شرطة للتصغير، أو على الأسهم الخضراء للخرائط المجاورة.


METAR-TAF: